createdAt,value
2023-05-09T00:00:56.528Z,24.13
2023-05-09T00:03:24.558Z,22.30
2023-05-09T00:05:52.479Z,24.10
2023-05-09T00:08:20.179Z,23.83
2023-05-09T00:10:49.232Z,22.40
2023-05-09T00:13:17.690Z,24.63
2023-05-09T00:15:46.638Z,21.43
2023-05-09T00:18:15.184Z,23.23
2023-05-09T00:20:44.362Z,20.13
2023-05-09T00:23:12.075Z,24.93
2023-05-09T00:25:39.815Z,20.03
2023-05-09T00:28:08.997Z,19.90
2023-05-09T00:30:36.628Z,20.40
2023-05-09T00:33:04.387Z,22.97
2023-05-09T00:35:32.471Z,21.87
2023-05-09T00:38:00.240Z,19.87
2023-05-09T00:40:28.356Z,21.27
2023-05-09T00:42:58.305Z,19.43
2023-05-09T00:45:27.580Z,20.47
2023-05-09T00:47:55.317Z,21.77
2023-05-09T00:50:23.080Z,20.30
2023-05-09T00:52:51.492Z,19.30
2023-05-09T00:55:19.629Z,21.13
2023-05-09T00:57:47.699Z,18.87
2023-05-09T01:00:16.717Z,22.63
2023-05-09T01:02:47.702Z,20.20
2023-05-09T01:05:16.124Z,20.73
2023-05-09T01:07:47.483Z,19.83
2023-05-09T01:10:24.167Z,20.20
2023-05-09T01:12:56.279Z,23.53
2023-05-09T01:15:29.063Z,19.47
2023-05-09T01:18:01.108Z,19.97
2023-05-09T01:20:33.691Z,18.97
2023-05-09T01:23:17.090Z,21.40
2023-05-09T01:25:56.251Z,20.03
2023-05-09T01:28:54.697Z,22.20
2023-05-09T01:31:24.650Z,24.57
2023-05-09T01:33:56.042Z,23.07
2023-05-09T01:36:24.588Z,19.73
2023-05-09T01:38:53.154Z,19.93
2023-05-09T01:41:23.843Z,22.13
2023-05-09T01:43:51.986Z,21.07
2023-05-09T01:46:20.600Z,24.53
2023-05-09T01:48:51.150Z,22.93
2023-05-09T01:51:20.227Z,20.17
2023-05-09T01:53:49.577Z,23.57
2023-05-09T01:56:17.812Z,21.47
2023-05-09T01:58:48.208Z,25.17
2023-05-09T02:01:16.278Z,26.03
2023-05-09T02:03:44.643Z,24.73
2023-05-09T02:06:15.137Z,26.30
2023-05-09T02:08:43.680Z,26.77
2023-05-09T02:11:11.365Z,24.50
2023-05-09T02:13:39.319Z,24.63
2023-05-09T02:16:07.950Z,34.60
2023-05-09T02:18:35.752Z,32.77
2023-05-09T02:21:04.045Z,25.10
2023-05-09T02:23:33.173Z,27.53
2023-05-09T02:26:00.968Z,29.53
2023-05-09T02:28:29.190Z,26.90
2023-05-09T02:30:58.673Z,25.63
2023-05-09T02:33:26.647Z,26.87
2023-05-09T02:35:54.897Z,24.20
2023-05-09T02:38:22.574Z,23.77
2023-05-09T02:40:52.555Z,28.60
2023-05-09T02:43:20.431Z,26.37
2023-05-09T02:45:48.147Z,25.50
2023-05-09T02:48:15.897Z,27.50
2023-05-09T02:50:44.355Z,27.00
2023-05-09T02:53:12.121Z,25.93
2023-05-09T02:55:39.846Z,29.23
2023-05-09T02:58:14.125Z,27.97
2023-05-09T03:00:43.257Z,26.93
2023-05-09T03:03:11.400Z,27.93
2023-05-09T03:05:39.269Z,28.23
2023-05-09T03:08:07.062Z,27.63
2023-05-09T03:10:35.298Z,27.83
2023-05-09T03:13:03.008Z,29.33
2023-05-09T03:15:32.116Z,28.73
2023-05-09T03:17:59.797Z,28.73
2023-05-09T03:20:27.729Z,30.10
2023-05-09T03:22:55.466Z,28.67
2023-05-09T03:25:23.353Z,33.40
2023-05-09T03:27:51.055Z,28.83
2023-05-09T03:30:19.129Z,35.07
2023-05-09T03:32:48.235Z,32.90
2023-05-09T03:35:16.287Z,29.30
2023-05-09T03:37:44.180Z,29.70
2023-05-09T03:40:12.675Z,29.90
2023-05-09T03:42:40.328Z,27.97
2023-05-09T03:45:09.154Z,31.73
2023-05-09T03:47:36.885Z,30.97
2023-05-09T03:50:07.095Z,30.13
2023-05-09T03:52:34.786Z,31.93
2023-05-09T03:55:02.724Z,32.70
2023-05-09T03:57:30.403Z,29.00
2023-05-09T03:59:58.138Z,30.23
2023-05-09T04:02:26.068Z,32.57
2023-05-09T04:04:53.897Z,30.17
2023-05-09T04:07:23.105Z,30.37
2023-05-09T04:09:50.772Z,32.23
2023-05-09T04:12:18.803Z,29.60
2023-05-09T04:14:48.904Z,32.13
2023-05-09T04:17:16.834Z,32.17
2023-05-09T04:19:44.557Z,31.67
2023-05-09T04:22:12.637Z,30.83
2023-05-09T04:24:42.126Z,34.03
2023-05-09T04:27:09.789Z,34.63
2023-05-09T04:29:38.371Z,31.23
2023-05-09T04:32:06.509Z,35.30
2023-05-09T04:34:34.307Z,29.07
2023-05-09T04:37:01.995Z,31.17
2023-05-09T04:39:30.429Z,31.67
2023-05-09T04:41:59.468Z,31.83
2023-05-09T04:44:27.569Z,33.63
2023-05-09T04:46:55.972Z,33.30
2023-05-09T04:49:23.626Z,32.00
2023-05-09T04:51:52.278Z,31.23
2023-05-09T04:54:19.926Z,35.83
2023-05-09T04:56:50.052Z,33.47
2023-05-09T04:59:19.739Z,30.23
2023-05-09T05:01:47.539Z,32.47
2023-05-09T05:04:15.328Z,33.67
2023-05-09T05:06:42.989Z,30.20
2023-05-09T05:09:11.120Z,35.83
2023-05-09T05:11:38.972Z,33.10
2023-05-09T05:14:07.979Z,28.87
2023-05-09T05:16:37.121Z,29.67
2023-05-09T05:19:05.167Z,29.60
2023-05-09T05:21:32.810Z,33.17
2023-05-09T05:24:00.493Z,29.13
2023-05-09T05:26:29.015Z,30.87
2023-05-09T05:28:57.199Z,31.30
2023-05-09T05:31:24.866Z,32.57
2023-05-09T05:33:53.933Z,32.03
2023-05-09T05:36:21.790Z,33.77
2023-05-09T05:38:49.440Z,34.17
2023-05-09T05:41:17.093Z,31.93
2023-05-09T05:43:44.802Z,31.87
2023-05-09T05:46:12.528Z,31.87
2023-05-09T05:48:40.239Z,32.23
2023-05-09T05:51:09.333Z,36.60
2023-05-09T05:53:37.263Z,33.63
2023-05-09T05:56:05.351Z,31.80
2023-05-09T05:58:32.989Z,31.17
2023-05-09T06:01:00.879Z,32.17
2023-05-09T06:03:28.638Z,35.77
2023-05-09T06:05:56.904Z,32.30
2023-05-09T06:08:26.043Z,32.67
2023-05-09T06:10:53.780Z,33.80
2023-05-09T06:13:21.508Z,33.03
2023-05-09T06:15:49.275Z,33.90
2023-05-09T06:18:16.931Z,30.97
2023-05-09T06:20:44.586Z,30.83
2023-05-09T06:23:12.284Z,33.57
2023-05-09T06:25:41.401Z,37.70
2023-05-09T06:28:09.101Z,29.47
2023-05-09T06:30:36.817Z,32.80
2023-05-09T06:33:04.526Z,32.17
2023-05-09T06:35:32.300Z,32.67
2023-05-09T06:37:59.994Z,31.50
2023-05-09T06:40:27.843Z,30.47
2023-05-09T06:42:57.126Z,34.40
2023-05-09T06:45:24.847Z,33.33
2023-05-09T06:47:52.571Z,34.03
2023-05-09T06:50:20.382Z,30.57
2023-05-09T06:52:48.357Z,27.87
2023-05-09T06:55:16.359Z,32.33
2023-05-09T06:57:44.252Z,33.03
2023-05-09T07:00:14.946Z,33.53
2023-05-09T07:02:43.223Z,29.67
2023-05-09T07:05:11.738Z,29.13
2023-05-09T07:07:39.413Z,33.43
2023-05-09T07:10:11.900Z,31.37
2023-05-09T07:12:40.333Z,37.60
2023-05-09T07:15:09.572Z,34.67
2023-05-09T07:17:38.690Z,41.30
2023-05-09T07:20:07.884Z,33.67
2023-05-09T07:22:37.374Z,36.70
2023-05-09T07:25:07.799Z,38.87
2023-05-09T07:27:35.518Z,38.20
2023-05-09T07:30:03.369Z,36.17
2023-05-09T07:32:31.133Z,36.00
2023-05-09T07:35:00.264Z,43.60
2023-05-09T07:37:27.947Z,37.17
2023-05-09T07:39:55.835Z,37.90
2023-05-09T07:42:23.561Z,40.07
2023-05-09T07:44:51.246Z,39.93
2023-05-09T07:47:18.950Z,37.13
2023-05-09T07:49:47.999Z,44.87
2023-05-09T07:52:17.942Z,42.73
2023-05-09T07:54:45.870Z,43.93
2023-05-09T07:57:13.640Z,42.40
2023-05-09T07:59:42.394Z,43.53
2023-05-09T08:02:10.228Z,41.40
2023-05-09T08:04:41.184Z,42.43
2023-05-09T08:07:09.670Z,45.37
2023-05-09T08:09:38.740Z,48.37
2023-05-09T08:12:07.029Z,47.87
2023-05-09T08:14:34.750Z,39.97
2023-05-09T08:17:02.443Z,41.60
2023-05-09T08:19:30.217Z,40.73
2023-05-09T08:21:57.908Z,43.77
2023-05-09T08:24:25.625Z,49.73
2023-05-09T08:26:54.820Z,42.87
2023-05-09T08:29:22.514Z,48.23
2023-05-09T08:31:51.230Z,44.43
2023-05-09T08:34:19.027Z,45.13
2023-05-09T08:36:47.008Z,43.70
2023-05-09T08:39:15.060Z,40.83
2023-05-09T08:41:43.408Z,47.47
2023-05-09T08:44:12.637Z,44.03
2023-05-09T08:46:44.209Z,37.70
2023-05-09T08:49:12.183Z,42.83
2023-05-09T08:51:40.238Z,40.23
2023-05-09T08:54:08.376Z,33.07
2023-05-09T08:56:36.432Z,38.20
2023-05-09T08:59:05.725Z,33.93
2023-05-09T09:01:36.442Z,32.43
2023-05-09T09:04:07.166Z,37.03
2023-05-09T09:06:35.529Z,37.60
2023-05-09T09:09:06.041Z,38.50
2023-05-09T09:11:34.763Z,40.40
2023-05-09T09:14:03.384Z,38.17
2023-05-09T09:16:31.879Z,38.67
2023-05-09T09:19:01.490Z,37.10
2023-05-09T09:21:29.214Z,35.30
2023-05-09T09:23:57.088Z,36.90
2023-05-09T09:26:25.014Z,38.47
2023-05-09T09:28:54.324Z,34.73
2023-05-09T09:31:23.414Z,36.80
2023-05-09T09:33:52.184Z,40.40
2023-05-09T09:36:29.178Z,38.43
2023-05-09T09:39:01.448Z,43.23
2023-05-09T09:41:33.726Z,40.30
2023-05-09T09:44:07.763Z,39.93
2023-05-09T09:46:53.684Z,44.23
2023-05-09T09:49:22.179Z,42.67
2023-05-09T09:51:56.061Z,46.27
2023-05-09T09:54:24.114Z,42.07
2023-05-09T09:56:54.293Z,41.50
2023-05-09T09:59:23.546Z,43.10
2023-05-09T10:01:56.204Z,50.00
2023-05-09T10:04:24.342Z,43.70
2023-05-09T10:06:58.145Z,46.43
2023-05-09T10:09:27.281Z,47.20
2023-05-09T10:11:56.717Z,49.93
2023-05-09T10:14:25.761Z,54.93
2023-05-09T10:16:56.664Z,57.47
2023-05-09T10:19:26.464Z,57.43
2023-05-09T10:21:57.241Z,62.27
2023-05-09T10:24:29.967Z,62.07
2023-05-09T10:27:01.667Z,64.73
2023-05-09T10:29:31.929Z,66.77
2023-05-09T10:32:02.626Z,69.10
2023-05-09T10:34:33.003Z,68.13
2023-05-09T10:37:02.646Z,67.73
2023-05-09T10:39:30.605Z,71.07
2023-05-09T10:41:59.811Z,77.60
2023-05-09T10:44:27.732Z,73.70
2023-05-09T10:46:55.702Z,83.10
2023-05-09T10:49:23.752Z,78.67
2023-05-09T10:51:52.238Z,86.30
2023-05-09T10:54:33.408Z,84.10
2023-05-09T10:57:01.168Z,78.73
2023-05-09T10:59:37.339Z,86.03
2023-05-09T11:02:05.902Z,79.90
2023-05-09T11:04:33.863Z,85.23
2023-05-09T11:07:01.913Z,82.43
2023-05-09T11:09:33.837Z,89.77
2023-05-09T11:12:12.844Z,85.07
2023-05-09T11:14:45.491Z,78.27
2023-05-09T11:17:14.467Z,78.20
2023-05-09T11:20:00.714Z,83.20
2023-05-09T11:22:30.642Z,75.00
2023-05-09T11:25:05.599Z,76.47
2023-05-09T11:27:39.900Z,77.40
2023-05-09T11:30:09.245Z,86.17
2023-05-09T11:32:43.227Z,77.60
2023-05-09T11:35:14.937Z,77.10
2023-05-09T11:37:47.987Z,81.73
2023-05-09T11:40:18.548Z,79.53
2023-05-09T11:42:47.423Z,86.57
2023-05-09T11:45:16.081Z,74.67
2023-05-09T11:47:44.237Z,69.20
2023-05-09T11:50:13.637Z,72.10
2023-05-09T11:52:41.888Z,65.87
2023-05-09T11:55:12.723Z,68.87
2023-05-09T11:57:44.284Z,69.07
2023-05-09T12:00:12.968Z,67.07
2023-05-09T12:02:40.687Z,68.20
2023-05-09T12:05:10.148Z,67.83
2023-05-09T12:07:39.550Z,68.30
2023-05-09T12:10:08.714Z,70.73
2023-05-09T12:12:36.698Z,70.87
2023-05-09T12:15:09.008Z,67.73
2023-05-09T12:17:36.956Z,68.23
2023-05-09T12:20:05.985Z,75.73
2023-05-09T12:22:34.094Z,68.73
2023-05-09T12:25:03.927Z,69.93
2023-05-09T12:27:33.062Z,67.47
2023-05-09T12:30:01.477Z,69.23
2023-05-09T12:32:32.940Z,72.10
2023-05-09T12:35:01.462Z,68.87
2023-05-09T12:37:32.532Z,63.33
2023-05-09T12:40:06.331Z,67.67
2023-05-09T12:42:34.396Z,60.43
2023-05-09T12:45:03.144Z,53.93
2023-05-09T12:47:32.995Z,51.73
2023-05-09T12:50:01.569Z,54.43
2023-05-09T12:52:35.354Z,54.47
2023-05-09T12:55:06.888Z,50.17
2023-05-09T12:57:34.618Z,48.97
2023-05-09T13:00:04.170Z,45.30
2023-05-09T13:02:37.071Z,31.73
2023-05-09T13:05:10.790Z,23.27
2023-05-09T13:07:42.133Z,21.87
2023-05-09T13:10:13.701Z,24.70
2023-05-09T13:12:44.627Z,23.37
2023-05-09T13:15:12.947Z,24.47
2023-05-09T13:17:42.245Z,21.37
2023-05-09T13:20:10.613Z,24.50
2023-05-09T13:22:38.631Z,21.67
2023-05-09T13:25:07.151Z,24.47
2023-05-09T13:27:35.774Z,24.57
2023-05-09T13:30:03.719Z,26.70
2023-05-09T13:32:31.636Z,24.63
2023-05-09T13:35:00.946Z,22.47
2023-05-09T13:37:28.680Z,24.83
2023-05-09T13:39:56.490Z,21.97
2023-05-09T13:42:24.108Z,20.03
2023-05-09T13:44:51.770Z,28.53
2023-05-09T13:47:19.437Z,23.33
2023-05-09T13:49:47.069Z,27.10
2023-05-09T13:52:16.897Z,21.23
2023-05-09T13:54:44.626Z,21.47
2023-05-09T13:57:12.701Z,22.67
2023-05-09T13:59:42.122Z,23.57
2023-05-09T14:02:10.893Z,27.97
2023-05-09T14:04:38.688Z,21.40
2023-05-09T14:07:06.710Z,19.83
2023-05-09T14:09:39.967Z,23.37
2023-05-09T14:12:08.156Z,22.03
2023-05-09T14:14:36.004Z,23.43
2023-05-09T14:17:04.450Z,18.73
2023-05-09T14:19:32.119Z,20.77
2023-05-09T14:21:59.773Z,21.77
2023-05-09T14:24:30.813Z,22.67
2023-05-09T14:26:59.901Z,22.77
2023-05-09T14:29:27.725Z,20.77
2023-05-09T14:31:55.756Z,20.57
2023-05-09T14:34:23.457Z,21.30
2023-05-09T14:36:51.284Z,21.17
2023-05-09T14:39:20.463Z,22.00
2023-05-09T14:41:50.023Z,22.13
2023-05-09T14:44:19.059Z,22.10
2023-05-09T14:46:46.788Z,20.37
2023-05-09T14:49:14.538Z,22.17
2023-05-09T14:51:42.263Z,21.40
2023-05-09T14:54:09.923Z,23.97
2023-05-09T14:56:37.938Z,21.07
2023-05-09T14:59:05.647Z,21.37
2023-05-09T15:01:34.760Z,19.80
2023-05-09T15:04:02.551Z,20.77
2023-05-09T15:06:30.466Z,24.10
2023-05-09T15:08:58.166Z,26.50
2023-05-09T15:11:28.645Z,22.13
2023-05-09T15:13:58.497Z,20.17
2023-05-09T15:16:26.561Z,18.40
2023-05-09T15:18:56.449Z,18.23
2023-05-09T15:21:24.147Z,18.73
2023-05-09T15:23:51.780Z,18.20
2023-05-09T15:26:19.556Z,17.33
2023-05-09T15:28:47.280Z,17.33
2023-05-09T15:31:15.341Z,16.93
2023-05-09T15:33:43.205Z,18.37
2023-05-09T15:36:12.660Z,21.70
2023-05-09T15:38:40.328Z,20.30
2023-05-09T15:41:08.981Z,20.10
2023-05-09T15:43:36.702Z,16.70
2023-05-09T15:46:04.362Z,19.93
2023-05-09T15:48:32.123Z,17.83
2023-05-09T15:50:59.768Z,15.70
2023-05-09T15:53:28.834Z,16.90
2023-05-09T15:55:56.852Z,16.97
2023-05-09T15:58:24.555Z,15.27
2023-05-09T16:00:52.401Z,13.70
2023-05-09T16:03:20.239Z,13.67
2023-05-09T16:05:48.276Z,11.50
2023-05-09T16:08:16.020Z,11.10
2023-05-09T16:10:48.785Z,9.80
2023-05-09T16:13:17.752Z,9.93
2023-05-09T16:15:47.824Z,9.87
2023-05-09T16:18:15.604Z,9.23
2023-05-09T16:20:44.034Z,7.60
2023-05-09T16:23:11.880Z,8.30
2023-05-09T16:25:39.736Z,7.00
2023-05-09T16:28:08.882Z,8.27
2023-05-09T16:30:36.575Z,8.17
2023-05-09T16:33:04.270Z,7.80
2023-05-09T16:35:32.028Z,8.67
2023-05-09T16:37:59.772Z,8.00
2023-05-09T16:40:27.543Z,7.43
2023-05-09T16:42:55.213Z,7.33
2023-05-09T16:45:24.295Z,7.37
2023-05-09T16:47:53.256Z,5.93
2023-05-09T16:50:21.135Z,6.30
2023-05-09T16:52:49.083Z,6.83
2023-05-09T16:55:17.046Z,6.07
2023-05-09T16:57:44.787Z,4.37
2023-05-09T17:00:13.551Z,4.53
2023-05-09T17:02:42.730Z,3.50
2023-05-09T17:05:10.869Z,8.20
2023-05-09T17:07:38.756Z,5.60
2023-05-09T17:10:07.307Z,6.57
2023-05-09T17:12:35.190Z,3.97
2023-05-09T17:15:02.908Z,4.00
2023-05-09T17:17:30.809Z,3.83
2023-05-09T17:20:01.015Z,4.37
2023-05-09T17:22:28.898Z,4.50
2023-05-09T17:24:56.622Z,3.90
2023-05-09T17:27:24.345Z,4.40
2023-05-09T17:29:52.057Z,4.53
2023-05-09T17:32:19.753Z,4.47
2023-05-09T17:34:47.452Z,4.70
2023-05-09T17:37:17.217Z,5.43
2023-05-09T17:39:45.014Z,5.10
2023-05-09T17:42:12.912Z,5.00
2023-05-09T17:44:43.031Z,5.90
2023-05-09T17:47:12.560Z,6.77
2023-05-09T17:49:40.587Z,4.77
2023-05-09T17:52:08.250Z,3.90
2023-05-09T17:54:37.611Z,5.17
2023-05-09T17:57:05.305Z,5.97
2023-05-09T17:59:33.140Z,4.20
2023-05-09T18:02:00.891Z,5.30
2023-05-09T18:04:30.697Z,4.50
2023-05-09T18:06:58.382Z,4.50
2023-05-09T18:09:26.454Z,5.47
2023-05-09T18:11:55.477Z,5.20
2023-05-09T18:14:23.201Z,4.40
2023-05-09T18:16:50.928Z,4.60
2023-05-09T18:19:18.691Z,4.70
2023-05-09T18:21:46.437Z,8.67
2023-05-09T18:24:16.314Z,5.23
2023-05-09T18:26:44.711Z,5.90
2023-05-09T18:29:13.804Z,5.17
2023-05-09T18:31:41.770Z,5.30
2023-05-09T18:34:09.922Z,5.13
2023-05-09T18:36:37.674Z,4.90
2023-05-09T18:39:05.514Z,5.17
2023-05-09T18:41:34.198Z,5.07
2023-05-09T18:44:01.976Z,4.30
2023-05-09T18:46:33.585Z,4.70
2023-05-09T18:49:03.006Z,6.23
2023-05-09T18:51:31.175Z,6.17
2023-05-09T18:53:58.851Z,5.90
2023-05-09T18:56:26.511Z,5.03
2023-05-09T18:58:54.206Z,5.40
2023-05-09T19:01:24.285Z,6.57
2023-05-09T19:03:55.156Z,6.93
2023-05-09T19:06:24.059Z,6.20
2023-05-09T19:08:52.103Z,6.70
2023-05-09T19:11:19.771Z,7.17
2023-05-09T19:13:49.375Z,7.00
2023-05-09T19:16:19.546Z,6.73
2023-05-09T19:18:47.293Z,6.03
2023-05-09T19:21:18.661Z,7.13
2023-05-09T19:23:47.725Z,7.23
2023-05-09T19:26:15.998Z,7.27
2023-05-09T19:28:43.815Z,7.07
2023-05-09T19:31:11.619Z,7.17
2023-05-09T19:33:39.596Z,7.13
2023-05-09T19:36:07.881Z,7.03
2023-05-09T19:38:37.052Z,7.20
2023-05-09T19:41:04.837Z,9.50
2023-05-09T19:43:32.576Z,7.93
2023-05-09T19:46:00.866Z,8.07
2023-05-09T19:48:28.658Z,7.77
2023-05-09T19:50:57.826Z,8.73
2023-05-09T19:53:25.830Z,7.90
2023-05-09T19:55:54.857Z,9.93
2023-05-09T19:58:22.562Z,8.83
2023-05-09T20:00:50.238Z,8.23
2023-05-09T20:03:18.153Z,7.47
2023-05-09T20:05:45.958Z,7.57
2023-05-09T20:08:16.063Z,8.07
2023-05-09T20:10:43.739Z,8.13
2023-05-09T20:13:13.954Z,27.33
2023-05-09T20:15:41.662Z,11.70
2023-05-09T20:18:09.323Z,9.97
2023-05-09T20:20:37.263Z,9.00
2023-05-09T20:23:04.994Z,9.30
2023-05-09T20:25:33.088Z,10.33
2023-05-09T20:28:00.753Z,9.37
2023-05-09T20:30:29.802Z,9.07
2023-05-09T20:32:58.591Z,12.43
2023-05-09T20:35:26.407Z,10.17
2023-05-09T20:37:54.061Z,9.27
2023-05-09T20:40:21.851Z,10.10
2023-05-09T20:42:49.514Z,10.23
2023-05-09T20:45:17.732Z,10.47
2023-05-09T20:47:46.874Z,11.07
2023-05-09T20:50:14.799Z,10.30
2023-05-09T20:52:42.688Z,10.40
2023-05-09T20:55:10.804Z,10.70
2023-05-09T20:57:38.458Z,10.50
2023-05-09T21:00:07.553Z,11.20
2023-05-09T21:02:35.388Z,11.53
2023-05-09T21:05:04.801Z,11.77
2023-05-09T21:07:32.488Z,16.73
2023-05-09T21:10:00.212Z,11.93
2023-05-09T21:12:27.911Z,11.23
2023-05-09T21:14:56.337Z,11.20
2023-05-09T21:17:24.087Z,12.70
2023-05-09T21:19:52.252Z,11.57
2023-05-09T21:22:21.287Z,11.90
2023-05-09T21:24:49.117Z,12.43
2023-05-09T21:27:16.794Z,11.87
2023-05-09T21:29:44.441Z,12.37
2023-05-09T21:32:12.108Z,12.40
2023-05-09T21:34:39.746Z,12.40
2023-05-09T21:37:07.426Z,12.87
2023-05-09T21:39:36.424Z,12.53
2023-05-09T21:42:04.203Z,12.57
2023-05-09T21:44:31.914Z,12.27
2023-05-09T21:46:59.887Z,13.07
2023-05-09T21:49:28.355Z,12.07
2023-05-09T21:51:56.127Z,12.97
2023-05-09T21:54:23.851Z,13.30
2023-05-09T21:56:52.875Z,13.57
2023-05-09T21:59:22.238Z,11.80
2023-05-09T22:01:50.120Z,13.50
2023-05-09T22:04:17.776Z,13.77
2023-05-09T22:06:45.480Z,13.03
2023-05-09T22:09:13.135Z,13.80
2023-05-09T22:11:40.847Z,12.63
2023-05-09T22:14:10.321Z,14.13
2023-05-09T22:16:38.394Z,13.43
2023-05-09T22:19:06.128Z,13.50
2023-05-09T22:21:33.775Z,13.73
2023-05-09T22:24:01.477Z,14.63
2023-05-09T22:26:29.156Z,12.90
2023-05-09T22:28:56.811Z,14.63
2023-05-09T22:31:25.895Z,13.73
2023-05-09T22:33:53.584Z,14.17
2023-05-09T22:36:21.749Z,13.70
2023-05-09T22:38:49.403Z,12.67
2023-05-09T22:41:17.228Z,13.07
2023-05-09T22:43:44.992Z,15.53
2023-05-09T22:46:12.793Z,13.17
2023-05-09T22:48:41.917Z,14.97
2023-05-09T22:51:09.947Z,15.13
2023-05-09T22:53:37.961Z,14.27
2023-05-09T22:56:07.528Z,14.17
2023-05-09T22:58:35.271Z,13.77
2023-05-09T23:01:03.101Z,14.23
2023-05-09T23:03:30.890Z,15.10
2023-05-09T23:05:59.947Z,13.77
2023-05-09T23:08:27.636Z,14.77
2023-05-09T23:10:55.324Z,14.00
2023-05-09T23:13:23.551Z,15.73
2023-05-09T23:15:51.969Z,15.87
2023-05-09T23:18:21.006Z,14.00
2023-05-09T23:20:48.708Z,14.80
2023-05-09T23:23:17.780Z,15.03
2023-05-09T23:25:45.558Z,15.63
2023-05-09T23:28:13.584Z,14.50
2023-05-09T23:30:41.315Z,12.23
2023-05-09T23:33:08.983Z,12.23
2023-05-09T23:35:36.623Z,11.17
2023-05-09T23:38:04.675Z,11.97
2023-05-09T23:40:33.731Z,13.40
2023-05-09T23:43:01.389Z,16.47
2023-05-09T23:45:29.436Z,17.27
2023-05-09T23:47:58.143Z,13.00
2023-05-09T23:50:25.849Z,12.90
2023-05-09T23:52:53.557Z,15.70
2023-05-09T23:55:21.359Z,12.80
2023-05-09T23:57:50.411Z,15.20
